createdAt,value
2023-04-25T00:00:27.178Z,1002.56
2023-04-25T00:01:27.372Z,1002.55
2023-04-25T00:02:27.899Z,1002.51
2023-04-25T00:03:27.953Z,1002.52
2023-04-25T00:04:28.189Z,1002.54
2023-04-25T00:05:28.797Z,1002.51
2023-04-25T00:06:29.272Z,1002.49
2023-04-25T00:07:29.242Z,1002.51
2023-04-25T00:08:28.772Z,1002.46
2023-04-25T00:09:28.961Z,1002.49
2023-04-25T00:10:30.230Z,1002.43
2023-04-25T00:11:29.335Z,1002.48
2023-04-25T00:12:29.495Z,1002.50
2023-04-25T00:13:29.789Z,1002.53
2023-04-25T00:14:30.280Z,1002.52
2023-04-25T00:15:30.737Z,1002.57
2023-04-25T00:16:30.248Z,1002.54
2023-04-25T00:17:31.262Z,1002.51
2023-04-25T00:18:31.749Z,1002.54
2023-04-25T00:19:31.284Z,1002.54
2023-04-25T00:20:30.779Z,1002.52
2023-04-25T00:21:30.949Z,1002.56
2023-04-25T00:22:31.780Z,1002.56
2023-04-25T00:23:31.268Z,1002.62
2023-04-25T00:24:32.236Z,1002.63
2023-04-25T00:25:31.604Z,1002.62
2023-04-25T00:26:31.785Z,1002.59
2023-04-25T00:27:32.625Z,1002.60
2023-04-25T00:28:32.131Z,1002.58
2023-04-25T00:29:34.751Z,1002.62
2023-04-25T00:30:32.462Z,1002.61
2023-04-25T00:31:32.809Z,1002.61
2023-04-25T00:32:33.292Z,1002.57
2023-04-25T00:33:32.978Z,1002.57
2023-04-25T00:34:33.156Z,1002.60
2023-04-25T00:35:33.301Z,1002.60
2023-04-25T00:36:34.475Z,1002.53
2023-04-25T00:37:33.590Z,1002.58
2023-04-25T00:38:34.236Z,1002.60
2023-04-25T00:39:34.780Z,1002.60
2023-04-25T00:40:34.011Z,1002.56
2023-04-25T00:41:34.169Z,1002.54
2023-04-25T00:42:34.325Z,1002.55
2023-04-25T00:43:35.278Z,1002.53
2023-04-25T00:44:34.638Z,1002.50
2023-04-25T00:45:34.755Z,1002.42
2023-04-25T00:46:34.939Z,1002.43
2023-04-25T00:47:35.059Z,1002.40
2023-04-25T00:48:36.743Z,1002.33
2023-04-25T00:49:35.371Z,1002.34
2023-04-25T00:50:37.128Z,1002.32
2023-04-25T00:51:35.720Z,1002.34
2023-04-25T00:52:35.874Z,1002.35
2023-04-25T00:53:36.018Z,1002.31
2023-04-25T00:54:38.237Z,1002.28
2023-04-25T00:55:36.323Z,1002.24
2023-04-25T00:56:37.276Z,1002.23
2023-04-25T00:57:36.642Z,1002.26
2023-04-25T00:58:37.741Z,1002.23
2023-04-25T00:59:37.022Z,1002.19
2023-04-25T01:00:37.784Z,1002.23
2023-04-25T01:01:38.792Z,1002.20
2023-04-25T01:02:37.682Z,1002.24
2023-04-25T01:03:37.964Z,1002.16
2023-04-25T01:04:39.180Z,1002.22
2023-04-25T01:05:38.316Z,1002.20
2023-04-25T01:06:38.388Z,1002.15
2023-04-25T01:07:38.553Z,1002.15
2023-04-25T01:08:38.698Z,1002.13
2023-04-25T01:09:38.819Z,1002.15
2023-04-25T01:10:39.813Z,1002.14
2023-04-25T01:11:39.211Z,1002.13
2023-04-25T01:12:39.349Z,1002.16
2023-04-25T01:13:40.289Z,1002.23
2023-04-25T01:14:40.244Z,1002.22
2023-04-25T01:15:39.853Z,1002.26
2023-04-25T01:16:40.107Z,1002.16
2023-04-25T01:17:40.187Z,1002.26
2023-04-25T01:18:40.336Z,1002.15
2023-04-25T01:19:40.467Z,1002.17
2023-04-25T01:20:42.268Z,1002.17
2023-04-25T01:21:41.809Z,1002.19
2023-04-25T01:22:41.792Z,1002.20
2023-04-25T01:23:41.278Z,1002.24
2023-04-25T01:24:41.812Z,1002.25
2023-04-25T01:25:41.582Z,1002.23
2023-04-25T01:26:41.710Z,1002.18
2023-04-25T01:27:41.870Z,1002.22
2023-04-25T01:28:42.750Z,1002.17
2023-04-25T01:29:42.121Z,1002.12
2023-04-25T01:30:42.786Z,1002.12
2023-04-25T01:31:44.266Z,1002.15
2023-04-25T01:32:42.675Z,1002.07
2023-04-25T01:33:42.812Z,1002.10
2023-04-25T01:34:43.807Z,1002.17
2023-04-25T01:35:43.059Z,1002.08
2023-04-25T01:36:43.262Z,1002.17
2023-04-25T01:37:44.295Z,1002.15
2023-04-25T01:38:44.297Z,1002.18
2023-04-25T01:39:44.295Z,1002.14
2023-04-25T01:40:44.753Z,1002.13
2023-04-25T01:41:44.752Z,1002.17
2023-04-25T01:42:44.359Z,1002.15
2023-04-25T01:43:45.250Z,1002.13
2023-04-25T01:44:44.725Z,1002.10
2023-04-25T01:45:45.781Z,1002.12
2023-04-25T01:46:45.106Z,1002.10
2023-04-25T01:47:45.254Z,1002.14
2023-04-25T01:48:45.434Z,1002.06
2023-04-25T01:49:45.582Z,1002.08
2023-04-25T01:50:45.831Z,1002.10
2023-04-25T01:51:45.890Z,1002.14
2023-04-25T01:52:46.799Z,1002.14
2023-04-25T01:53:46.806Z,1002.16
2023-04-25T01:54:46.319Z,1002.13
2023-04-25T01:55:48.146Z,1002.14
2023-04-25T01:56:46.617Z,1002.18
2023-04-25T01:57:47.301Z,1002.26
2023-04-25T01:58:46.937Z,1002.31
2023-04-25T01:59:47.094Z,1002.34
2023-04-25T02:00:47.209Z,1002.37
2023-04-25T02:01:49.282Z,1002.31
2023-04-25T02:02:48.342Z,1002.34
2023-04-25T02:03:47.892Z,1002.36
2023-04-25T02:04:47.849Z,1002.31
2023-04-25T02:05:48.793Z,1002.32
2023-04-25T02:06:48.204Z,1002.34
2023-04-25T02:07:49.308Z,1002.35
2023-04-25T02:08:49.254Z,1002.41
2023-04-25T02:09:48.844Z,1002.40
2023-04-25T02:10:50.756Z,1002.41
2023-04-25T02:11:49.229Z,1002.39
2023-04-25T02:12:49.394Z,1002.36
2023-04-25T02:13:50.450Z,1002.36
2023-04-25T02:14:50.647Z,1002.39
2023-04-25T02:15:50.729Z,1002.40
2023-04-25T02:16:50.124Z,1002.44
2023-04-25T02:17:50.860Z,1002.43
2023-04-25T02:18:50.383Z,1002.41
2023-04-25T02:19:50.565Z,1002.45
2023-04-25T02:20:50.742Z,1002.41
2023-04-25T02:21:50.897Z,1002.43
2023-04-25T02:22:53.652Z,1002.41
2023-04-25T02:23:51.445Z,1002.43
2023-04-25T02:24:51.352Z,1002.44
2023-04-25T02:25:51.487Z,1002.44
2023-04-25T02:26:51.639Z,1002.44
2023-04-25T02:27:52.757Z,1002.42
2023-04-25T02:28:53.814Z,1002.44
2023-04-25T02:29:52.259Z,1002.42
2023-04-25T02:30:52.374Z,1002.45
2023-04-25T02:31:53.289Z,1002.43
2023-04-25T02:32:55.349Z,1002.45
2023-04-25T02:33:53.763Z,1002.52
2023-04-25T02:34:53.772Z,1002.50
2023-04-25T02:35:54.311Z,1002.45
2023-04-25T02:36:55.285Z,1002.44
2023-04-25T02:38:14.792Z,1002.52
2023-04-25T02:38:54.809Z,1002.48
2023-04-25T02:39:54.761Z,1002.50
2023-04-25T02:40:54.268Z,1002.51
2023-04-25T02:41:54.825Z,1002.61
2023-04-25T02:42:55.334Z,1002.54
2023-04-25T02:43:55.263Z,1002.58
2023-04-25T02:44:56.765Z,1002.50
2023-04-25T02:45:55.175Z,1002.50
2023-04-25T02:46:55.366Z,1002.50
2023-04-25T02:47:55.857Z,1002.54
2023-04-25T02:48:55.762Z,1002.50
2023-04-25T02:49:55.889Z,1002.52
2023-04-25T02:50:56.779Z,1002.55
2023-04-25T02:51:56.807Z,1002.49
2023-04-25T02:52:56.845Z,1002.54
2023-04-25T02:53:57.308Z,1002.50
2023-04-25T02:54:57.768Z,1002.54
2023-04-25T02:55:57.809Z,1002.53
2023-04-25T02:56:57.191Z,1002.52
2023-04-25T02:57:59.735Z,1002.53
2023-04-25T02:58:57.610Z,1002.54
2023-04-25T02:59:58.309Z,1002.55
2023-04-25T03:00:58.048Z,1002.60
2023-04-25T03:01:58.815Z,1002.53
2023-04-25T03:02:58.985Z,1002.58
2023-04-25T03:03:59.327Z,1002.51
2023-04-25T03:05:00.218Z,1002.53
2023-04-25T03:06:00.654Z,1002.51
2023-04-25T03:06:59.021Z,1002.50
2023-04-25T03:07:59.345Z,1002.56
2023-04-25T03:09:00.309Z,1002.52
2023-04-25T03:10:00.348Z,1002.55
2023-04-25T03:10:59.746Z,1002.51
2023-04-25T03:11:59.887Z,1002.53
2023-04-25T03:13:00.038Z,1002.57
2023-04-25T03:14:00.770Z,1002.55
2023-04-25T03:15:01.339Z,1002.58
2023-04-25T03:16:01.344Z,1002.54
2023-04-25T03:17:00.809Z,1002.54
2023-04-25T03:18:01.802Z,1002.60
2023-04-25T03:19:01.994Z,1002.51
2023-04-25T03:20:01.233Z,1002.60
2023-04-25T03:21:02.325Z,1002.56
2023-04-25T03:22:02.319Z,1002.59
2023-04-25T03:23:01.720Z,1002.58
2023-04-25T03:24:02.833Z,1002.59
2023-04-25T03:25:02.340Z,1002.59
2023-04-25T03:26:02.240Z,1002.56
2023-04-25T03:27:03.280Z,1002.60
2023-04-25T03:28:03.445Z,1002.61
2023-04-25T03:29:03.705Z,1002.60
2023-04-25T03:30:02.881Z,1002.64
2023-04-25T03:31:03.842Z,1002.57
2023-04-25T03:32:03.841Z,1002.58
2023-04-25T03:33:03.424Z,1002.59
2023-04-25T03:34:04.314Z,1002.53
2023-04-25T03:35:03.727Z,1002.60
2023-04-25T03:36:03.856Z,1002.61
2023-04-25T03:37:04.114Z,1002.62
2023-04-25T03:38:04.271Z,1002.66
2023-04-25T03:39:07.217Z,1002.60
2023-04-25T03:40:04.566Z,1002.63
2023-04-25T03:41:04.841Z,1002.60
2023-04-25T03:42:05.777Z,1002.67
2023-04-25T03:43:06.796Z,1002.65
2023-04-25T03:44:05.311Z,1002.66
2023-04-25T03:45:06.333Z,1002.68
2023-04-25T03:46:05.882Z,1002.69
2023-04-25T03:47:06.368Z,1002.74
2023-04-25T03:48:06.873Z,1002.73
2023-04-25T03:49:06.248Z,1002.70
2023-04-25T03:50:07.359Z,1002.80
2023-04-25T03:51:06.586Z,1002.74
2023-04-25T03:52:07.789Z,1002.77
2023-04-25T03:53:07.850Z,1002.80
2023-04-25T03:54:08.673Z,1002.70
2023-04-25T03:55:08.300Z,1002.81
2023-04-25T03:56:07.532Z,1002.79
2023-04-25T03:57:08.284Z,1002.89
2023-04-25T03:58:07.900Z,1002.89
2023-04-25T03:59:08.027Z,1002.94
2023-04-25T04:00:08.192Z,1002.96
2023-04-25T04:01:08.348Z,1002.89
2023-04-25T04:02:08.974Z,1002.92
2023-04-25T04:03:09.226Z,1002.93
2023-04-25T04:04:09.983Z,1002.90
2023-04-25T04:05:11.427Z,1002.93
2023-04-25T04:06:10.287Z,1002.94
2023-04-25T04:07:11.786Z,1002.96
2023-04-25T04:08:09.844Z,1002.97
2023-04-25T04:09:09.721Z,1003.02
2023-04-25T04:10:09.851Z,1003.10
2023-04-25T04:11:10.828Z,1003.03
2023-04-25T04:12:11.283Z,1003.09
2023-04-25T04:13:10.482Z,1002.99
2023-04-25T04:14:10.643Z,1003.01
2023-04-25T04:15:10.760Z,1002.98
2023-04-25T04:16:12.707Z,1003.03
2023-04-25T04:17:11.798Z,1003.05
2023-04-25T04:18:11.298Z,1003.02
2023-04-25T04:19:11.471Z,1003.08
2023-04-25T04:20:11.710Z,1003.03
2023-04-25T04:21:12.807Z,1003.10
2023-04-25T04:22:12.033Z,1003.10
2023-04-25T04:23:12.820Z,1003.08
2023-04-25T04:24:13.362Z,1003.11
2023-04-25T04:25:14.318Z,1003.13
2023-04-25T04:26:12.705Z,1003.10
2023-04-25T04:27:12.885Z,1003.06
2023-04-25T04:28:13.040Z,1003.11
2023-04-25T04:29:13.341Z,1003.16
2023-04-25T04:30:13.363Z,1003.10
2023-04-25T04:31:13.522Z,1003.15
2023-04-25T04:32:13.705Z,1003.13
2023-04-25T04:33:13.900Z,1003.12
2023-04-25T04:34:14.785Z,1003.07
2023-04-25T04:35:14.357Z,1003.15
2023-04-25T04:36:14.507Z,1003.11
2023-04-25T04:37:16.296Z,1003.08
2023-04-25T04:38:16.804Z,1003.07
2023-04-25T04:39:15.792Z,1003.06
2023-04-25T04:40:16.820Z,1003.12
2023-04-25T04:41:17.291Z,1003.09
2023-04-25T04:42:16.336Z,1003.11
2023-04-25T04:43:15.723Z,1003.16
2023-04-25T04:44:16.834Z,1003.15
2023-04-25T04:45:16.806Z,1003.20
2023-04-25T04:46:17.854Z,1003.22
2023-04-25T04:47:16.455Z,1003.20
2023-04-25T04:48:17.350Z,1003.18
2023-04-25T04:49:17.830Z,1003.24
2023-04-25T04:50:17.372Z,1003.27
2023-04-25T04:51:17.852Z,1003.26
2023-04-25T04:52:17.494Z,1003.25
2023-04-25T04:53:18.351Z,1003.25
2023-04-25T04:54:18.798Z,1003.23
2023-04-25T04:55:19.306Z,1003.22
2023-04-25T04:56:18.165Z,1003.23
2023-04-25T04:57:18.316Z,1003.28
2023-04-25T04:58:19.286Z,1003.23
2023-04-25T04:59:19.583Z,1003.26
2023-04-25T05:00:19.295Z,1003.34
2023-04-25T05:01:19.869Z,1003.34
2023-04-25T05:02:19.205Z,1003.37
2023-04-25T05:03:19.999Z,1003.36
2023-04-25T05:04:19.706Z,1003.40
2023-04-25T05:05:19.553Z,1003.50
2023-04-25T05:06:19.716Z,1003.58
2023-04-25T05:07:20.802Z,1003.58
2023-04-25T05:08:20.054Z,1003.64
2023-04-25T05:09:20.366Z,1003.73
2023-04-25T05:10:20.471Z,1003.71
2023-04-25T05:11:21.355Z,1003.79
2023-04-25T05:12:20.850Z,1003.71
2023-04-25T05:13:21.054Z,1003.78
2023-04-25T05:14:21.221Z,1003.72
2023-04-25T05:15:21.377Z,1003.65
2023-04-25T05:16:22.378Z,1003.72
2023-04-25T05:17:22.360Z,1003.74
2023-04-25T05:18:23.578Z,1003.75
2023-04-25T05:19:23.800Z,1003.73
2023-04-25T05:20:22.840Z,1003.78
2023-04-25T05:21:22.361Z,1003.83
2023-04-25T05:22:23.302Z,1003.85
2023-04-25T05:23:22.724Z,1003.82
2023-04-25T05:24:23.849Z,1003.85
2023-04-25T05:25:23.356Z,1003.85
2023-04-25T05:26:23.816Z,1003.83
2023-04-25T05:27:24.342Z,1003.81
2023-04-25T05:28:24.305Z,1003.87
2023-04-25T05:29:23.843Z,1003.87
2023-04-25T05:30:24.812Z,1003.90
2023-04-25T05:31:25.061Z,1003.93
2023-04-25T05:32:26.425Z,1003.84
2023-04-25T05:33:24.516Z,1003.91
2023-04-25T05:34:24.724Z,1003.88
2023-04-25T05:35:25.875Z,1003.91
2023-04-25T05:36:25.049Z,1003.90
2023-04-25T05:37:25.847Z,1003.85
2023-04-25T05:38:25.861Z,1003.80
2023-04-25T05:39:25.573Z,1003.84
2023-04-25T05:40:25.707Z,1003.82
2023-04-25T05:41:26.853Z,1003.80
2023-04-25T05:42:26.844Z,1003.80
2023-04-25T05:43:26.204Z,1003.75
2023-04-25T05:44:26.389Z,1003.63
2023-04-25T05:45:26.530Z,1003.52
2023-04-25T05:46:26.809Z,1003.49
2023-04-25T05:47:27.360Z,1003.42
2023-04-25T05:48:27.839Z,1003.38
2023-04-25T05:49:27.252Z,1003.26
2023-04-25T05:50:27.402Z,1003.20
2023-04-25T05:51:27.646Z,1003.22
2023-04-25T05:52:27.824Z,1003.08
2023-04-25T05:53:28.688Z,1003.00
2023-04-25T05:54:28.812Z,1003.00
2023-04-25T05:55:28.967Z,1003.05
2023-04-25T05:56:29.554Z,1003.04
2023-04-25T05:57:29.343Z,1003.16
2023-04-25T05:58:29.340Z,1003.13
2023-04-25T05:59:28.991Z,1003.22
2023-04-25T06:00:29.137Z,1003.15
2023-04-25T06:01:29.328Z,1003.05
2023-04-25T06:02:30.441Z,1003.11
2023-04-25T06:03:30.440Z,1003.07
2023-04-25T06:04:32.965Z,1003.17
2023-04-25T06:05:31.871Z,1003.23
2023-04-25T06:06:30.838Z,1003.29
2023-04-25T06:07:30.344Z,1003.38
2023-04-25T06:08:31.336Z,1003.44
2023-04-25T06:09:30.730Z,1003.41
2023-04-25T06:10:30.901Z,1003.42
2023-04-25T06:11:31.058Z,1003.50
2023-04-25T06:12:31.848Z,1003.46
2023-04-25T06:13:31.352Z,1003.45
2023-04-25T06:14:32.315Z,1003.46
2023-04-25T06:15:31.809Z,1003.54
2023-04-25T06:16:32.083Z,1003.54
2023-04-25T06:17:32.179Z,1003.41
2023-04-25T06:18:32.207Z,1003.47
2023-04-25T06:19:32.355Z,1003.49
2023-04-25T06:20:32.481Z,1003.49
2023-04-25T06:21:32.711Z,1003.52
2023-04-25T06:22:33.522Z,1003.55
2023-04-25T06:23:33.844Z,1003.57
2023-04-25T06:24:33.184Z,1003.57
2023-04-25T06:25:33.313Z,1003.49
2023-04-25T06:26:33.475Z,1003.57
2023-04-25T06:27:33.683Z,1003.43
2023-04-25T06:28:34.818Z,1003.40
2023-04-25T06:29:34.188Z,1003.39
2023-04-25T06:30:34.330Z,1003.31
2023-04-25T06:31:34.526Z,1003.21
2023-04-25T06:32:34.691Z,1003.07
2023-04-25T06:33:34.839Z,1002.81
2023-04-25T06:34:35.359Z,1002.56
2023-04-25T06:35:35.184Z,1002.48
2023-04-25T06:36:35.336Z,1002.28
2023-04-25T06:37:35.487Z,1002.28
2023-04-25T06:38:35.621Z,1002.26
2023-04-25T06:39:36.699Z,1002.24
2023-04-25T06:40:35.950Z,1002.26
2023-04-25T06:41:37.863Z,1002.20
2023-04-25T06:42:37.314Z,1002.17
2023-04-25T06:43:36.541Z,1002.11
2023-04-25T06:44:36.802Z,1002.08
2023-04-25T06:45:36.951Z,1002.06
2023-04-25T06:46:37.110Z,1001.84
2023-04-25T06:47:38.842Z,1001.79
2023-04-25T06:48:39.813Z,1001.77
2023-04-25T06:49:37.670Z,1001.88
2023-04-25T06:50:37.813Z,1001.93
2023-04-25T06:51:37.975Z,1002.01
2023-04-25T06:52:38.815Z,1002.00
2023-04-25T06:53:39.310Z,1002.03
2023-04-25T06:54:38.583Z,1002.13
2023-04-25T06:55:39.817Z,1002.28
2023-04-25T06:56:39.850Z,1002.33
2023-04-25T06:57:39.160Z,1002.41
2023-04-25T06:58:39.320Z,1002.41
2023-04-25T06:59:39.470Z,1002.50
2023-04-25T07:00:39.670Z,1002.42
2023-04-25T07:01:40.363Z,1002.51
2023-04-25T07:02:39.957Z,1002.58
2023-04-25T07:03:40.189Z,1002.58
2023-04-25T07:04:40.403Z,1002.65
2023-04-25T07:05:41.319Z,1002.67
2023-04-25T07:06:40.554Z,1002.64
2023-04-25T07:07:40.880Z,1002.69
2023-04-25T07:08:41.864Z,1002.66
2023-04-25T07:09:42.571Z,1002.74
2023-04-25T07:10:41.325Z,1002.58
2023-04-25T07:11:41.474Z,1002.56
2023-04-25T07:12:41.650Z,1002.57
2023-04-25T07:13:41.829Z,1002.61
2023-04-25T07:14:42.877Z,1002.57
2023-04-25T07:15:42.826Z,1002.67
2023-04-25T07:16:43.752Z,1002.59
2023-04-25T07:17:43.843Z,1002.63
2023-04-25T07:18:43.378Z,1002.79
2023-04-25T07:19:42.767Z,1002.80
2023-04-25T07:20:43.872Z,1002.89
2023-04-25T07:21:43.128Z,1002.81
2023-04-25T07:22:43.281Z,1002.85
2023-04-25T07:23:43.465Z,1002.84
2023-04-25T07:24:44.402Z,1002.84
2023-04-25T07:25:43.785Z,1002.74
2023-04-25T07:26:43.940Z,1002.66
2023-04-25T07:27:44.871Z,1002.49
2023-04-25T07:28:44.288Z,1002.36
2023-04-25T07:29:44.438Z,1002.29
2023-04-25T07:30:45.375Z,1002.27
2023-04-25T07:31:45.416Z,1002.22
2023-04-25T07:32:44.993Z,1002.22
2023-04-25T07:33:45.083Z,1002.29
2023-04-25T07:34:46.844Z,1002.33
2023-04-25T07:35:46.367Z,1002.35
2023-04-25T07:36:45.601Z,1002.36
2023-04-25T07:37:47.224Z,1002.38
2023-04-25T07:38:46.834Z,1002.47
2023-04-25T07:39:46.147Z,1002.50
2023-04-25T07:40:46.298Z,1002.41
2023-04-25T07:41:46.460Z,1002.52
2023-04-25T07:42:46.621Z,1002.51
2023-04-25T07:43:46.844Z,1002.51
2023-04-25T07:44:47.045Z,1002.43
2023-04-25T07:45:48.867Z,1002.43
2023-04-25T07:46:48.325Z,1002.34
2023-04-25T07:47:47.510Z,1002.31
2023-04-25T07:48:49.634Z,1002.32
2023-04-25T07:49:47.952Z,1002.31
2023-04-25T07:50:48.778Z,1002.31
2023-04-25T07:51:48.882Z,1001.86
2023-04-25T07:52:48.543Z,1001.56
2023-04-25T07:53:50.658Z,1001.45
2023-04-25T07:54:50.903Z,1000.97
2023-04-25T07:55:49.435Z,1000.94
2023-04-25T07:56:53.482Z,1000.92
2023-04-25T07:57:50.512Z,1001.04
2023-04-25T07:58:49.980Z,1001.12
2023-04-25T07:59:49.766Z,1001.20
2023-04-25T08:00:50.856Z,1001.30
2023-04-25T08:01:51.838Z,1001.39
2023-04-25T08:02:50.406Z,1001.57
2023-04-25T08:03:51.586Z,1001.60
2023-04-25T08:04:50.956Z,1001.57
2023-04-25T08:05:50.979Z,1001.66
2023-04-25T08:06:50.917Z,1001.79
2023-04-25T08:07:52.843Z,1001.87
2023-04-25T08:08:52.083Z,1002.06
2023-04-25T08:09:52.349Z,1002.14
2023-04-25T08:10:52.377Z,1002.22
2023-04-25T08:11:51.742Z,1002.24
2023-04-25T08:12:52.388Z,1002.32
2023-04-25T08:13:52.041Z,1002.41
2023-04-25T08:14:52.335Z,1002.49
2023-04-25T08:15:52.409Z,1002.52
2023-04-25T08:17:13.580Z,1002.60
2023-04-25T08:17:53.433Z,1002.62
2023-04-25T08:18:53.269Z,1002.63
2023-04-25T08:19:52.975Z,1002.68
2023-04-25T08:20:53.848Z,1002.66
2023-04-25T08:21:53.361Z,1002.71
2023-04-25T08:22:53.521Z,1002.72
2023-04-25T08:23:53.697Z,1002.84
2023-04-25T08:24:54.389Z,1002.86
2023-04-25T08:25:54.889Z,1002.99
2023-04-25T08:26:54.141Z,1002.89
2023-04-25T08:27:54.887Z,1002.95
2023-04-25T08:28:55.354Z,1002.99
2023-04-25T08:29:54.624Z,1002.98
2023-04-25T08:30:55.758Z,1002.96
2023-04-25T08:31:56.380Z,1002.96
2023-04-25T08:32:55.936Z,1002.96
2023-04-25T08:33:55.470Z,1002.85
2023-04-25T08:34:56.125Z,1002.85
2023-04-25T08:35:57.346Z,1002.80
2023-04-25T08:36:55.843Z,1002.62
2023-04-25T08:37:56.063Z,1002.52
2023-04-25T08:38:56.390Z,1002.25
2023-04-25T08:39:57.408Z,1002.24
2023-04-25T08:40:56.655Z,1002.15
2023-04-25T08:41:57.388Z,1002.06
2023-04-25T08:42:57.888Z,1002.10
2023-04-25T08:43:57.848Z,1002.07
2023-04-25T08:44:59.362Z,1002.03
2023-04-25T08:45:58.395Z,1002.04
2023-04-25T08:46:57.914Z,1002.13
2023-04-25T08:47:58.938Z,1002.16
2023-04-25T08:48:59.403Z,1002.23
2023-04-25T08:49:59.412Z,1002.30
2023-04-25T08:50:58.667Z,1002.29
2023-04-25T08:51:59.355Z,1002.43
2023-04-25T08:52:59.899Z,1002.49
2023-04-25T08:54:06.839Z,1002.52
2023-04-25T08:55:01.378Z,1002.53
2023-04-25T08:56:00.372Z,1002.62
2023-04-25T08:56:59.879Z,1002.76
2023-04-25T08:57:59.789Z,1002.83
2023-04-25T08:59:00.548Z,1002.90
2023-04-25T09:00:01.364Z,1002.98
2023-04-25T09:01:00.933Z,1003.00
2023-04-25T09:02:01.441Z,1003.15
2023-04-25T09:03:00.938Z,1003.12
2023-04-25T09:04:02.075Z,1003.19
2023-04-25T09:05:02.178Z,1003.16
2023-04-25T09:06:01.300Z,1003.21
2023-04-25T09:07:02.389Z,1003.17
2023-04-25T09:08:01.627Z,1003.17
2023-04-25T09:09:01.793Z,1003.15
2023-04-25T09:10:03.866Z,1003.19
2023-04-25T09:11:02.409Z,1003.14
2023-04-25T09:12:02.855Z,1003.07
2023-04-25T09:13:02.467Z,1002.98
2023-04-25T09:14:02.629Z,1002.69
2023-04-25T09:15:02.781Z,1002.54
2023-04-25T09:16:03.530Z,1002.33
2023-04-25T09:17:03.247Z,1001.95
2023-04-25T09:18:03.410Z,1001.61
2023-04-25T09:19:03.498Z,1001.51
2023-04-25T09:20:03.617Z,1001.41
2023-04-25T09:21:09.800Z,1001.36
2023-04-25T09:22:06.455Z,1001.35
2023-04-25T09:23:04.046Z,1001.36
2023-04-25T09:24:04.188Z,1001.42
2023-04-25T09:25:04.852Z,1001.33
2023-04-25T09:26:04.518Z,1001.42
2023-04-25T09:27:04.917Z,1001.44
2023-04-25T09:28:04.784Z,1001.49
2023-04-25T09:29:04.906Z,1001.55
2023-04-25T09:30:05.065Z,1001.70
2023-04-25T09:31:05.740Z,1001.67
2023-04-25T09:32:05.444Z,1001.71
2023-04-25T09:33:06.443Z,1001.68
2023-04-25T09:34:06.359Z,1001.76
2023-04-25T09:35:06.859Z,1001.85
2023-04-25T09:36:06.124Z,1001.74
2023-04-25T09:37:06.313Z,1001.73
2023-04-25T09:38:06.491Z,1001.61
2023-04-25T09:39:06.638Z,1001.44
2023-04-25T09:40:06.808Z,1001.23
2023-04-25T09:41:08.891Z,1001.25
2023-04-25T09:42:07.173Z,1001.18
2023-04-25T09:43:07.301Z,1001.18
2023-04-25T09:44:07.492Z,1001.14
2023-04-25T09:45:09.386Z,1001.16
2023-04-25T09:46:07.899Z,1001.24
2023-04-25T09:47:08.077Z,1001.22
2023-04-25T09:48:08.287Z,1001.36
2023-04-25T09:49:09.386Z,1001.45
2023-04-25T09:50:09.248Z,1001.58
2023-04-25T09:51:08.859Z,1001.67
2023-04-25T09:52:09.034Z,1001.86
2023-04-25T09:53:09.156Z,1001.92
2023-04-25T09:54:10.362Z,1002.05
2023-04-25T09:55:10.251Z,1002.19
2023-04-25T09:56:10.399Z,1002.35
2023-04-25T09:57:09.908Z,1002.49
2023-04-25T09:58:10.126Z,1002.66
2023-04-25T09:59:11.185Z,1002.69
2023-04-25T10:00:10.464Z,1002.84
2023-04-25T10:01:11.479Z,1002.93
2023-04-25T10:02:12.430Z,1003.01
2023-04-25T10:03:11.534Z,1003.17
2023-04-25T10:04:13.014Z,1003.17
2023-04-25T10:05:11.629Z,1003.25
2023-04-25T10:06:11.492Z,1003.34
2023-04-25T10:07:12.412Z,1003.33
2023-04-25T10:08:12.410Z,1003.28
2023-04-25T10:09:12.920Z,1003.33
2023-04-25T10:10:12.049Z,1003.34
2023-04-25T10:11:12.209Z,1003.33
2023-04-25T10:12:12.365Z,1003.29
2023-04-25T10:13:13.406Z,1003.20
2023-04-25T10:14:12.670Z,1003.04
2023-04-25T10:15:13.408Z,1003.15
2023-04-25T10:16:13.078Z,1003.09
2023-04-25T10:17:13.381Z,1003.04
2023-04-25T10:18:13.934Z,1003.02
2023-04-25T10:19:13.559Z,1003.00
2023-04-25T10:20:14.407Z,1003.03
2023-04-25T10:21:13.871Z,1003.04
2023-04-25T10:22:14.757Z,1003.09
2023-04-25T10:23:14.911Z,1003.08
2023-04-25T10:24:14.524Z,1003.09
2023-04-25T10:25:15.751Z,1003.09
2023-04-25T10:26:15.909Z,1003.18
2023-04-25T10:27:15.137Z,1003.27
2023-04-25T10:28:15.873Z,1003.30
2023-04-25T10:29:15.915Z,1003.33
2023-04-25T10:30:17.175Z,1003.45
2023-04-25T10:31:15.847Z,1003.55
2023-04-25T10:32:16.120Z,1003.65
2023-04-25T10:33:16.426Z,1003.77
2023-04-25T10:34:16.908Z,1003.89
2023-04-25T10:35:16.519Z,1003.90
2023-04-25T10:36:17.370Z,1004.02
2023-04-25T10:37:17.429Z,1004.11
2023-04-25T10:38:18.876Z,1004.16
2023-04-25T10:39:17.880Z,1004.24
2023-04-25T10:40:17.871Z,1004.29
2023-04-25T10:41:17.643Z,1004.28
2023-04-25T10:42:18.379Z,1004.32
2023-04-25T10:43:18.425Z,1004.29
2023-04-25T10:44:18.919Z,1004.34
2023-04-25T10:45:18.170Z,1004.27
2023-04-25T10:46:18.984Z,1004.28
2023-04-25T10:47:19.014Z,1004.25
2023-04-25T10:48:18.777Z,1004.16
2023-04-25T10:49:18.906Z,1004.02
2023-04-25T10:50:19.043Z,1003.91
2023-04-25T10:51:19.203Z,1003.86
2023-04-25T10:52:20.374Z,1003.79
2023-04-25T10:53:19.450Z,1003.80
2023-04-25T10:54:19.622Z,1003.70
2023-04-25T10:55:19.783Z,1003.51
2023-04-25T10:56:19.979Z,1003.22
2023-04-25T10:57:21.919Z,1003.16
2023-04-25T10:58:20.299Z,1003.04
2023-04-25T10:59:20.470Z,1002.88
2023-04-25T11:00:20.633Z,1002.68
2023-04-25T11:01:21.487Z,1002.53
2023-04-25T11:02:21.979Z,1002.42
2023-04-25T11:03:21.301Z,1002.18
2023-04-25T11:04:21.472Z,1002.11
2023-04-25T11:05:21.521Z,1001.98
2023-04-25T11:06:22.676Z,1001.96
2023-04-25T11:07:21.847Z,1001.79
2023-04-25T11:08:21.984Z,1001.81
2023-04-25T11:09:22.918Z,1001.73
2023-04-25T11:10:22.296Z,1001.67
2023-04-25T11:11:22.428Z,1001.75
2023-04-25T11:12:22.594Z,1001.70
2023-04-25T11:13:23.387Z,1001.74
2023-04-25T11:14:23.437Z,1001.80
2023-04-25T11:15:24.930Z,1001.76
2023-04-25T11:16:28.384Z,1001.92
2023-04-25T11:17:25.701Z,1001.94
2023-04-25T11:18:23.724Z,1002.06
2023-04-25T11:19:25.389Z,1002.13
2023-04-25T11:20:23.991Z,1002.28
2023-04-25T11:21:24.947Z,1002.46
2023-04-25T11:22:25.907Z,1002.51
2023-04-25T11:23:24.521Z,1002.71
2023-04-25T11:24:24.712Z,1002.80
2023-04-25T11:25:24.872Z,1002.91
2023-04-25T11:26:25.455Z,1003.05
2023-04-25T11:27:25.185Z,1003.07
2023-04-25T11:28:25.640Z,1003.16
2023-04-25T11:29:25.524Z,1003.27
2023-04-25T11:30:26.486Z,1003.29
2023-04-25T11:31:25.912Z,1003.40
2023-04-25T11:32:27.665Z,1003.42
2023-04-25T11:33:26.328Z,1003.47
2023-04-25T11:34:26.470Z,1003.55
2023-04-25T11:35:27.455Z,1003.57
2023-04-25T11:36:26.715Z,1003.59
2023-04-25T11:37:26.965Z,1003.72
2023-04-25T11:38:27.469Z,1003.76
2023-04-25T11:39:27.941Z,1003.76
2023-04-25T11:40:27.935Z,1003.89
2023-04-25T11:41:29.892Z,1003.90
2023-04-25T11:42:27.749Z,1003.91
2023-04-25T11:43:27.925Z,1003.97
2023-04-25T11:44:28.122Z,1003.94
2023-04-25T11:45:29.344Z,1004.06
2023-04-25T11:46:28.587Z,1004.13
2023-04-25T11:47:28.996Z,1004.12
2023-04-25T11:48:28.992Z,1004.12
2023-04-25T11:49:29.169Z,1004.18
2023-04-25T11:50:29.373Z,1004.20
2023-04-25T11:51:30.546Z,1004.18
2023-04-25T11:52:29.954Z,1004.15
2023-04-25T11:53:31.406Z,1004.10
2023-04-25T11:54:30.950Z,1004.04
2023-04-25T11:55:30.222Z,1004.08
2023-04-25T11:56:30.407Z,1004.10
2023-04-25T11:57:30.950Z,1004.04
2023-04-25T11:58:31.442Z,1004.09
2023-04-25T11:59:30.993Z,1003.98
2023-04-25T12:00:31.947Z,1004.03
2023-04-25T12:01:36.025Z,1004.00
2023-04-25T12:02:32.898Z,1004.01
2023-04-25T12:03:32.662Z,1004.01
2023-04-25T12:04:32.705Z,1004.02
2023-04-25T12:05:34.782Z,1004.05
2023-04-25T12:06:32.175Z,1003.87
2023-04-25T12:07:32.477Z,1003.89